Flight Number: EUR2243 Duration: 1:15
Departure: Munich Int'l (EDDM) at 07:30 Distance: 393 Nm
Arrival: Roma Fiumicino (LIRF) at 08:45 Equipment: A321

Weather Information
Munchen, Germany (EDDM) 48-21N 011-47E Aug 19, 2018 - 04:50 AM EDT / 2018.08.19 0850 UTC
Wind: Variable at 3 MPH (3 KT):0
Visibility: greater than 7 mile(s):0 Temperature: 75 F (24 C) Dew Point: 59 F (15 C) Relative Humidity: 57% Pressure (altimeter): 30.18 in. Hg (1022 hPa)
ob: EDDM 190850Z VRB03KT CAVOK 24/15 Q1022 NOSIG cycle: 9
Sunrise: 04:16 Sunset: 18:15 (UTC)

Roma Fiumicino, Italy (LIRF) 41-48N 012-14E 3M Aug 19, 2018 - 04:50 AM EDT / 2018.08.19 0850 UTC
Wind: from the NE (050 degrees) at 6 MPH (5 KT) (direction variable):0
Visibility: greater than 7 mile(s):0 Temperature: 82 F (28 C) Dew Point: 60 F (16 C) Relative Humidity: 48% Pressure (altimeter): 29.97 in. Hg (1015 hPa)
ob: LIRF 190850Z 05005KT 020V090 CAVOK 28/16 Q1015 NOSIG cycle: 9
Sunrise: 04:27 Sunset: 18:01 (UTC)

TAF:2018/08/19 06:23 TAF LIRF 190500Z 1906/2012 VRB05KT 9999 FEW030 BECMG 1908/1910 28012KT TEMPO 1912/1916 4000 TSRA BECMG 1917/1919 VRB05KT BECMG 2009/2011 26012KT

Previous Pireps for this route
Date Aircraft Flight time Fuel used Landing rate On time
2012-08-12MD-8101.47-1-220Yes
2012-10-14MD-8101.499572-308Yes
2012-12-20MD-8101.299127-304Yes
2013-01-14MD-811.1541420No
2013-01-22MD-811.139030.70No
2013-01-26B1900D02.151792-258Charter
2013-03-03MD-811.0578580No
2013-11-02A3211.17118880No
2014-05-06A3211.48160000No
2014-11-24A32101.269509-186Charter
2015-02-22B73701.238960-382Charter
2015-03-21A3211.2474580Charter
2015-04-05A32101.2310304-443Yes
2015-04-19A32101.248876-227Yes
2015-04-25A32101.217750-321Yes
2015-05-02B73701.4111534-570Charter
2015-05-07MD-811.1592780Yes
2015-05-08A32101.29-6380-210Yes
2015-05-15A32101.411741-479Yes
2015-05-21MD-811.2389570Yes
2015-12-15A32101.239937-32Charter
2016-05-21MD-8101.2710118-169Yes
2016-08-27A32101.187520-324Yes
2017-01-11B7372.1080000Charter
2017-01-13B73702.148792-6950Charter
(pireps marked green are flown by you)

Route map